createdAt,value
2023-03-31T00:01:58.382Z,68.55
2023-03-31T00:04:04.926Z,68.49
2023-03-31T00:06:12.178Z,68.73
2023-03-31T00:08:17.470Z,68.91
2023-03-31T00:10:20.124Z,68.88
2023-03-31T00:12:22.595Z,68.88
2023-03-31T00:14:25.162Z,68.80
2023-03-31T00:16:28.282Z,68.80
2023-03-31T00:18:31.380Z,68.90
2023-03-31T00:20:38.699Z,69.00
2023-03-31T00:22:46.481Z,68.84
2023-03-31T00:24:53.693Z,68.86
2023-03-31T00:26:57.516Z,68.89
2023-03-31T00:29:01.402Z,68.80
2023-03-31T00:31:07.068Z,68.64
2023-03-31T00:33:10.413Z,68.59
2023-03-31T00:35:13.828Z,68.57
2023-03-31T00:37:16.769Z,68.56
2023-03-31T00:39:19.579Z,68.51
2023-03-31T00:41:25.716Z,68.37
2023-03-31T00:43:34.813Z,68.39
2023-03-31T00:45:37.909Z,68.30
2023-03-31T00:47:44.358Z,68.34
2023-03-31T00:49:50.693Z,68.28
2023-03-31T00:52:00.124Z,68.33
2023-03-31T00:54:08.399Z,68.28
2023-03-31T00:56:15.746Z,68.22
2023-03-31T00:58:22.981Z,68.18
2023-03-31T01:00:32.475Z,68.18
2023-03-31T01:02:41.418Z,68.36
2023-03-31T01:04:51.032Z,68.29
2023-03-31T01:07:04.551Z,68.05
2023-03-31T01:09:07.257Z,68.16
2023-03-31T01:11:14.534Z,68.18
2023-03-31T01:13:20.503Z,68.10
2023-03-31T01:15:23.172Z,68.32
2023-03-31T01:17:28.318Z,68.19
2023-03-31T01:19:56.172Z,68.21
2023-03-31T01:22:20.576Z,68.17
2023-03-31T01:24:51.990Z,68.24
2023-03-31T01:27:34.980Z,68.31
2023-03-31T01:30:21.494Z,68.14
2023-03-31T01:32:56.463Z,68.34
2023-03-31T01:35:57.533Z,68.35
2023-03-31T01:38:57.482Z,68.31
2023-03-31T01:41:25.003Z,68.46
2023-03-31T01:43:36.384Z,68.32
2023-03-31T01:46:21.486Z,68.36
2023-03-31T01:49:14.864Z,68.17
2023-03-31T01:51:33.987Z,68.13
2023-03-31T01:53:55.845Z,68.29
2023-03-31T01:56:08.880Z,68.17
2023-03-31T01:58:14.099Z,68.27
2023-03-31T02:00:20.869Z,68.26
2023-03-31T02:02:30.004Z,68.33
2023-03-31T02:04:46.622Z,68.51
2023-03-31T02:06:57.435Z,68.34
2023-03-31T02:09:09.432Z,68.44
2023-03-31T02:11:14.215Z,68.40
2023-03-31T02:13:19.225Z,68.52
2023-03-31T02:15:28.650Z,68.40
2023-03-31T02:17:32.995Z,68.51
2023-03-31T02:19:39.872Z,68.46
2023-03-31T02:21:43.291Z,68.60
2023-03-31T02:23:50.924Z,68.55
2023-03-31T02:26:00.980Z,68.47
2023-03-31T02:28:14.324Z,68.37
2023-03-31T02:30:17.484Z,68.43
2023-03-31T02:32:28.050Z,68.34
2023-03-31T02:34:31.036Z,68.16
2023-03-31T02:36:36.567Z,68.27
2023-03-31T02:38:46.200Z,68.35
2023-03-31T02:40:49.039Z,68.31
2023-03-31T02:42:52.863Z,68.39
2023-03-31T02:45:02.592Z,68.58
2023-03-31T02:47:10.340Z,68.54
2023-03-31T02:49:14.126Z,68.40
2023-03-31T02:51:41.697Z,68.53
2023-03-31T02:53:59.779Z,68.74
2023-03-31T02:56:27.492Z,68.87
2023-03-31T02:58:34.670Z,68.88
2023-03-31T03:01:25.638Z,68.99
2023-03-31T03:03:35.419Z,68.86
2023-03-31T03:05:58.865Z,68.91
2023-03-31T03:08:55.663Z,68.88
2023-03-31T03:11:05.137Z,68.76
2023-03-31T03:13:46.032Z,68.84
2023-03-31T03:15:58.809Z,68.82
2023-03-31T03:18:03.270Z,68.94
2023-03-31T03:20:09.334Z,68.96
2023-03-31T03:22:15.585Z,68.82
2023-03-31T03:24:19.807Z,68.84
2023-03-31T03:26:24.396Z,68.93
2023-03-31T03:28:27.687Z,68.97
2023-03-31T03:30:30.569Z,68.95
2023-03-31T03:32:34.946Z,68.98
2023-03-31T03:34:39.948Z,68.90
2023-03-31T03:36:43.139Z,68.73
2023-03-31T03:38:47.417Z,68.55
2023-03-31T03:40:53.569Z,68.69
2023-03-31T03:42:56.845Z,68.60
2023-03-31T03:44:59.505Z,68.40
2023-03-31T03:47:02.709Z,68.38
2023-03-31T03:49:05.465Z,68.34
2023-03-31T03:51:09.458Z,68.19
2023-03-31T03:53:13.802Z,68.18
2023-03-31T03:55:17.854Z,68.07
2023-03-31T03:57:22.077Z,68.05
2023-03-31T03:59:24.998Z,68.10
2023-03-31T04:01:29.735Z,68.19
2023-03-31T04:03:33.750Z,68.02
2023-03-31T04:05:36.363Z,67.90
2023-03-31T04:07:38.786Z,67.79
2023-03-31T04:09:41.490Z,67.90
2023-03-31T04:11:44.024Z,67.82
2023-03-31T04:13:47.351Z,67.87
2023-03-31T04:15:51.647Z,67.80
2023-03-31T04:17:56.743Z,67.78
2023-03-31T04:20:09.487Z,67.57
2023-03-31T04:22:16.588Z,67.81
2023-03-31T04:24:21.823Z,67.78
2023-03-31T04:26:39.268Z,67.82
2023-03-31T04:28:50.638Z,67.90
2023-03-31T04:30:58.894Z,67.92
2023-03-31T04:33:06.693Z,67.77
2023-03-31T04:35:16.167Z,67.81
2023-03-31T04:37:18.831Z,67.72
2023-03-31T04:39:31.037Z,67.83
2023-03-31T04:41:34.792Z,67.73
2023-03-31T04:43:39.698Z,67.77
2023-03-31T04:45:44.733Z,67.80
2023-03-31T04:47:48.514Z,67.77
2023-03-31T04:49:52.775Z,67.65
2023-03-31T04:51:56.334Z,67.69
2023-03-31T04:53:58.776Z,67.52
2023-03-31T04:56:01.714Z,67.60
2023-03-31T04:58:04.497Z,67.63
2023-03-31T05:00:14.269Z,67.83
2023-03-31T05:02:25.183Z,67.97
2023-03-31T05:04:28.008Z,67.87
2023-03-31T05:06:31.110Z,67.98
2023-03-31T05:08:34.190Z,68.21
2023-03-31T05:10:37.363Z,68.38
2023-03-31T05:12:40.163Z,68.57
2023-03-31T05:14:44.032Z,68.37
2023-03-31T05:16:46.884Z,68.40
2023-03-31T05:18:49.408Z,68.49
2023-03-31T05:20:51.986Z,68.71
2023-03-31T05:22:54.531Z,68.70
2023-03-31T05:24:57.952Z,68.79
2023-03-31T05:27:02.688Z,68.88
2023-03-31T05:29:05.514Z,69.12
2023-03-31T05:31:09.890Z,69.01
2023-03-31T05:33:12.445Z,68.94
2023-03-31T05:35:16.209Z,68.91
2023-03-31T05:37:20.934Z,69.12
2023-03-31T05:39:23.443Z,69.18
2023-03-31T05:41:27.249Z,69.29
2023-03-31T05:43:32.065Z,69.28
2023-03-31T05:45:35.654Z,69.41
2023-03-31T05:47:39.062Z,69.15
2023-03-31T05:49:41.559Z,69.10
2023-03-31T05:51:44.813Z,68.79
2023-03-31T05:53:47.758Z,69.03
2023-03-31T05:55:50.267Z,68.90
2023-03-31T05:57:53.998Z,68.93
2023-03-31T05:59:56.728Z,68.97
2023-03-31T06:01:59.437Z,69.06
2023-03-31T06:04:03.270Z,68.73
2023-03-31T06:06:08.136Z,68.96
2023-03-31T06:08:11.789Z,68.84
2023-03-31T06:10:16.013Z,68.98
2023-03-31T06:12:20.066Z,68.93
2023-03-31T06:14:23.167Z,68.90
2023-03-31T06:16:26.721Z,68.76
2023-03-31T06:18:31.912Z,69.04
2023-03-31T06:20:36.593Z,68.93
2023-03-31T06:22:39.094Z,68.77
2023-03-31T06:24:41.889Z,68.83
2023-03-31T06:26:47.272Z,68.77
2023-03-31T06:28:49.832Z,68.74
2023-03-31T06:31:03.872Z,68.72
2023-03-31T06:33:07.280Z,68.81
2023-03-31T06:35:10.382Z,68.65
2023-03-31T06:37:12.937Z,68.91
2023-03-31T06:39:15.523Z,68.67
2023-03-31T06:41:22.311Z,68.85
2023-03-31T06:43:25.221Z,68.82
2023-03-31T06:45:27.980Z,68.82
2023-03-31T06:47:31.371Z,68.80
2023-03-31T06:49:33.930Z,68.62
2023-03-31T06:51:39.058Z,68.59
2023-03-31T06:53:42.212Z,68.61
2023-03-31T06:55:47.341Z,68.71
2023-03-31T06:57:49.912Z,68.79
2023-03-31T06:59:53.403Z,68.81
2023-03-31T07:01:58.322Z,69.20
2023-03-31T07:04:01.934Z,69.13
2023-03-31T07:06:06.014Z,69.29
2023-03-31T07:08:14.694Z,69.53
2023-03-31T07:10:21.092Z,69.89
2023-03-31T07:12:24.954Z,69.92
2023-03-31T07:14:27.501Z,69.91
2023-03-31T07:16:32.281Z,69.87
2023-03-31T07:18:36.560Z,69.91
2023-03-31T07:20:39.141Z,70.00
2023-03-31T07:22:48.469Z,70.14
2023-03-31T07:24:58.779Z,70.08
2023-03-31T07:27:03.002Z,70.04
2023-03-31T07:29:06.590Z,70.01
2023-03-31T07:31:16.070Z,70.12
2023-03-31T07:33:18.987Z,70.27
2023-03-31T07:35:23.041Z,70.28
2023-03-31T07:37:26.387Z,70.43
2023-03-31T07:39:29.206Z,70.32
2023-03-31T07:41:32.465Z,70.39
2023-03-31T07:43:35.818Z,70.31
2023-03-31T07:45:39.654Z,70.62
2023-03-31T07:47:44.581Z,70.48
2023-03-31T07:49:48.345Z,70.50
2023-03-31T07:51:51.978Z,70.56
2023-03-31T07:53:55.389Z,70.37
2023-03-31T07:55:58.681Z,70.26
2023-03-31T07:58:08.243Z,70.10
2023-03-31T08:00:12.808Z,69.97
2023-03-31T08:02:17.789Z,69.86
2023-03-31T08:04:22.164Z,69.80
2023-03-31T08:06:26.299Z,69.80
2023-03-31T08:08:30.078Z,69.87
2023-03-31T08:10:32.597Z,69.83
2023-03-31T08:12:35.120Z,69.87
2023-03-31T08:14:41.277Z,69.88
2023-03-31T08:16:45.016Z,69.72
2023-03-31T08:18:48.769Z,69.80
2023-03-31T08:20:51.767Z,69.68
2023-03-31T08:22:55.446Z,69.56
2023-03-31T08:24:58.444Z,69.68
2023-03-31T08:27:01.803Z,69.55
2023-03-31T08:29:06.072Z,69.72
2023-03-31T08:31:10.866Z,69.69
2023-03-31T08:33:15.244Z,69.57
2023-03-31T08:35:19.318Z,69.54
2023-03-31T08:37:22.216Z,69.48
2023-03-31T08:39:26.089Z,69.66
2023-03-31T08:42:08.821Z,69.65
2023-03-31T08:44:21.173Z,69.75
2023-03-31T08:46:28.265Z,69.68
2023-03-31T08:48:38.957Z,69.58
2023-03-31T08:50:48.256Z,69.46
2023-03-31T08:53:07.162Z,69.43
2023-03-31T08:55:22.279Z,69.42
2023-03-31T08:57:32.157Z,69.44
2023-03-31T08:59:39.972Z,69.80
2023-03-31T09:02:02.293Z,69.71
2023-03-31T09:04:29.473Z,69.68
2023-03-31T09:07:10.763Z,69.64
2023-03-31T09:09:32.550Z,69.69
2023-03-31T09:11:40.722Z,69.68
2023-03-31T09:13:59.189Z,69.54
2023-03-31T09:16:17.457Z,69.44
2023-03-31T09:18:32.598Z,69.59
2023-03-31T09:20:41.340Z,69.29
2023-03-31T09:23:00.570Z,69.32
2023-03-31T09:25:28.741Z,69.42
2023-03-31T09:27:39.210Z,69.46
2023-03-31T09:29:43.745Z,69.65
2023-03-31T09:31:47.271Z,69.80
2023-03-31T09:33:55.136Z,69.76
2023-03-31T09:36:02.337Z,70.11
2023-03-31T09:38:05.155Z,69.99
2023-03-31T09:40:14.654Z,69.90
2023-03-31T09:42:19.544Z,69.95
2023-03-31T09:44:28.277Z,70.02
2023-03-31T09:46:35.696Z,70.08
2023-03-31T09:48:40.186Z,70.08
2023-03-31T09:50:51.794Z,70.18
2023-03-31T09:53:00.795Z,70.26
2023-03-31T09:55:35.888Z,70.07
2023-03-31T09:57:40.010Z,70.17
2023-03-31T09:59:44.838Z,70.17
2023-03-31T10:01:52.276Z,70.28
2023-03-31T10:03:58.357Z,70.42
2023-03-31T10:06:01.371Z,70.47
2023-03-31T10:08:21.094Z,70.74
2023-03-31T10:10:33.263Z,70.96
2023-03-31T10:12:37.584Z,70.94
2023-03-31T10:14:45.302Z,71.14
2023-03-31T10:16:52.991Z,71.19
2023-03-31T10:19:17.535Z,71.20
2023-03-31T10:21:26.384Z,71.26
2023-03-31T10:23:34.802Z,71.09
2023-03-31T10:25:38.896Z,71.03
2023-03-31T10:27:42.371Z,71.03
2023-03-31T10:29:47.270Z,70.99
2023-03-31T10:31:52.236Z,71.07
2023-03-31T10:33:59.321Z,70.93
2023-03-31T10:36:20.448Z,70.95
2023-03-31T10:38:29.142Z,71.20
2023-03-31T10:40:36.403Z,71.20
2023-03-31T10:42:39.543Z,71.13
2023-03-31T10:44:45.056Z,70.56
2023-03-31T10:46:52.962Z,70.11
2023-03-31T10:49:00.394Z,69.97
2023-03-31T10:51:17.338Z,70.02
2023-03-31T10:53:21.217Z,69.93
2023-03-31T10:55:32.137Z,70.36
2023-03-31T10:57:45.440Z,70.55
2023-03-31T11:00:01.904Z,70.25
2023-03-31T11:02:35.678Z,70.33
2023-03-31T11:05:15.926Z,70.28
2023-03-31T11:07:43.464Z,70.22
2023-03-31T11:10:25.670Z,70.40
2023-03-31T11:12:58.873Z,69.99
2023-03-31T11:15:33.324Z,69.48
2023-03-31T11:17:57.114Z,69.58
2023-03-31T11:20:14.944Z,69.79
2023-03-31T11:22:34.323Z,69.77
2023-03-31T11:25:03.436Z,69.72
2023-03-31T11:27:42.129Z,69.65
2023-03-31T11:30:18.037Z,69.49
2023-03-31T11:32:30.718Z,69.24
2023-03-31T11:34:55.669Z,69.15
2023-03-31T11:37:25.777Z,69.09
2023-03-31T11:40:07.999Z,68.65
2023-03-31T11:42:20.017Z,68.58
2023-03-31T11:44:25.958Z,68.26
2023-03-31T11:46:36.863Z,68.14
2023-03-31T11:48:59.157Z,68.05
2023-03-31T11:51:12.010Z,67.80
2023-03-31T11:53:22.587Z,67.85
2023-03-31T11:55:29.752Z,67.67
2023-03-31T11:57:41.679Z,67.77
2023-03-31T11:59:54.884Z,67.74
2023-03-31T12:02:20.393Z,67.28
2023-03-31T12:04:40.903Z,66.87
2023-03-31T12:06:49.945Z,66.33
2023-03-31T12:08:58.484Z,66.17
2023-03-31T12:11:09.519Z,66.05
2023-03-31T12:13:31.447Z,65.31
2023-03-31T12:15:51.650Z,64.46
2023-03-31T12:18:13.822Z,64.70
2023-03-31T12:20:59.198Z,64.90
2023-03-31T12:23:09.228Z,64.63
2023-03-31T12:25:19.998Z,64.68
2023-03-31T12:27:42.337Z,64.95
2023-03-31T12:29:59.403Z,64.71
2023-03-31T12:32:11.602Z,64.42
2023-03-31T12:34:18.319Z,64.27
2023-03-31T12:36:39.068Z,64.04
2023-03-31T12:39:10.128Z,64.07
2023-03-31T12:41:23.700Z,63.66
2023-03-31T12:43:48.848Z,62.97
2023-03-31T12:46:32.920Z,62.38
2023-03-31T12:49:00.158Z,62.67
2023-03-31T12:51:11.739Z,62.34
2023-03-31T12:53:33.509Z,62.48
2023-03-31T12:55:57.957Z,62.06
2023-03-31T12:58:26.963Z,61.61
2023-03-31T13:00:30.709Z,61.22
2023-03-31T13:02:33.504Z,61.29
2023-03-31T13:04:38.353Z,61.45
2023-03-31T13:06:41.632Z,61.92
2023-03-31T13:09:06.043Z,62.16
2023-03-31T13:11:12.462Z,61.94
2023-03-31T13:13:39.427Z,61.93
2023-03-31T13:16:33.548Z,61.85
2023-03-31T13:19:13.721Z,61.81
2023-03-31T13:22:09.504Z,61.90
2023-03-31T13:24:47.491Z,61.81
2023-03-31T13:28:04.606Z,61.97
2023-03-31T13:30:53.717Z,61.80
2023-03-31T13:33:37.084Z,61.92
2023-03-31T13:36:45.590Z,61.85
2023-03-31T13:39:58.607Z,62.04
2023-03-31T13:43:00.624Z,62.36
2023-03-31T13:46:16.708Z,62.21
2023-03-31T13:49:31.593Z,62.03
2023-03-31T13:52:16.559Z,62.00
2023-03-31T13:55:46.861Z,61.43
2023-03-31T13:59:04.588Z,60.87
2023-03-31T14:01:50.637Z,61.02
2023-03-31T14:05:10.779Z,60.62
2023-03-31T14:08:00.744Z,60.27
2023-03-31T14:10:48.912Z,59.80
2023-03-31T14:13:30.160Z,59.86
2023-03-31T14:16:12.083Z,59.91
2023-03-31T14:18:55.878Z,59.86
2023-03-31T14:21:44.823Z,59.48
2023-03-31T14:24:30.581Z,59.38
2023-03-31T14:27:47.326Z,59.69
2023-03-31T14:31:05.638Z,59.52
2023-03-31T14:34:01.618Z,59.54
2023-03-31T14:37:11.762Z,59.82
2023-03-31T14:39:54.617Z,59.82
2023-03-31T14:42:36.761Z,60.05
2023-03-31T14:45:20.781Z,60.10
2023-03-31T14:48:20.420Z,60.00
2023-03-31T14:51:00.851Z,60.06
2023-03-31T14:53:44.389Z,60.10
2023-03-31T14:56:25.677Z,59.93
2023-03-31T14:59:13.525Z,60.23
2023-03-31T15:01:51.892Z,60.12
2023-03-31T15:04:42.049Z,60.03
2023-03-31T15:07:21.651Z,59.33
2023-03-31T15:10:07.213Z,59.06
2023-03-31T15:12:44.713Z,59.30
2023-03-31T15:15:27.671Z,59.20
2023-03-31T15:18:04.698Z,59.42
2023-03-31T15:20:51.746Z,59.77
2023-03-31T15:23:39.873Z,59.79
2023-03-31T15:26:28.036Z,60.16
2023-03-31T15:29:24.725Z,60.29
2023-03-31T15:32:04.198Z,60.52
2023-03-31T15:34:50.229Z,60.39
2023-03-31T15:37:28.718Z,60.68
2023-03-31T15:40:06.621Z,61.35
2023-03-31T15:43:01.498Z,61.29
2023-03-31T15:45:48.044Z,59.66
2023-03-31T15:49:01.332Z,59.41
2023-03-31T15:51:48.899Z,59.74
2023-03-31T15:54:51.727Z,59.87
2023-03-31T15:57:31.742Z,60.27
2023-03-31T16:00:12.472Z,60.55
2023-03-31T16:02:55.902Z,60.93
2023-03-31T16:05:54.411Z,61.25
2023-03-31T16:08:44.765Z,62.05
2023-03-31T16:11:26.845Z,62.85
2023-03-31T16:14:09.637Z,63.19
2023-03-31T16:16:47.779Z,63.44
2023-03-31T16:19:26.805Z,63.99
2023-03-31T16:22:11.809Z,63.48
2023-03-31T16:24:51.748Z,63.56
2023-03-31T16:27:32.835Z,62.77
2023-03-31T16:30:30.086Z,60.91
2023-03-31T16:33:23.809Z,58.96
2023-03-31T16:36:07.193Z,57.24
2023-03-31T16:38:47.876Z,56.56
2023-03-31T16:41:24.790Z,55.83
2023-03-31T16:44:01.885Z,54.90
2023-03-31T16:46:39.192Z,54.66
2023-03-31T16:49:15.862Z,54.61
2023-03-31T16:52:03.910Z,55.51
2023-03-31T16:54:42.236Z,56.41
2023-03-31T16:57:20.854Z,56.94
2023-03-31T16:59:59.039Z,57.74
2023-03-31T17:02:40.042Z,58.40
2023-03-31T17:05:16.966Z,58.98
2023-03-31T17:07:55.843Z,59.40
2023-03-31T17:10:34.977Z,59.90
2023-03-31T17:13:16.630Z,60.56
2023-03-31T17:16:01.396Z,60.87
2023-03-31T17:18:52.796Z,61.43
2023-03-31T17:21:31.940Z,61.72
2023-03-31T17:24:09.097Z,62.11
2023-03-31T17:26:46.911Z,62.56
2023-03-31T17:29:23.877Z,62.86
2023-03-31T17:32:04.224Z,63.25
2023-03-31T17:34:40.911Z,63.53
2023-03-31T17:37:18.362Z,63.33
2023-03-31T17:39:55.056Z,63.22
2023-03-31T17:42:32.903Z,63.06
2023-03-31T17:45:12.013Z,63.04
2023-03-31T17:47:48.970Z,63.26
2023-03-31T17:50:25.962Z,63.10
2023-03-31T17:53:02.924Z,63.37
2023-03-31T17:55:41.037Z,63.46
2023-03-31T17:58:19.981Z,63.75
2023-03-31T18:00:59.957Z,63.99
2023-03-31T18:03:38.176Z,64.37
2023-03-31T18:06:25.093Z,64.28
2023-03-31T18:09:05.069Z,64.37
2023-03-31T18:11:41.990Z,64.30
2023-03-31T18:14:20.972Z,64.45
2023-03-31T18:17:00.921Z,64.29
2023-03-31T18:19:40.256Z,64.26
2023-03-31T18:22:13.962Z,64.26
2023-03-31T18:24:53.008Z,64.42
2023-03-31T18:27:30.056Z,64.50
2023-03-31T18:30:07.057Z,64.33
2023-03-31T18:32:45.085Z,64.81
2023-03-31T18:35:23.198Z,64.65
2023-03-31T18:38:03.068Z,64.78
2023-03-31T18:40:41.001Z,64.98
2023-03-31T18:43:19.224Z,65.14
2023-03-31T18:45:56.977Z,65.32
2023-03-31T18:48:35.210Z,65.37
2023-03-31T18:51:12.019Z,65.70
2023-03-31T18:53:49.150Z,65.73
2023-03-31T18:56:28.109Z,65.88
2023-03-31T18:59:14.168Z,66.02
2023-03-31T19:01:52.284Z,66.06
2023-03-31T19:04:30.085Z,66.26
2023-03-31T19:07:10.336Z,66.57
2023-03-31T19:09:47.068Z,66.56
2023-03-31T19:12:26.422Z,66.60
2023-03-31T19:15:03.053Z,66.62
2023-03-31T19:17:40.109Z,66.70
2023-03-31T19:20:24.426Z,66.73
2023-03-31T19:23:07.195Z,66.74
2023-03-31T19:25:46.134Z,66.79
2023-03-31T19:28:30.203Z,66.73
2023-03-31T19:31:14.414Z,66.76
2023-03-31T19:36:33.491Z,67.06
2023-03-31T19:39:15.820Z,66.98
2023-03-31T19:41:52.305Z,67.12
2023-03-31T19:44:32.549Z,67.16
2023-03-31T19:47:11.876Z,67.06
2023-03-31T19:49:50.182Z,67.10
2023-03-31T19:52:30.105Z,66.98
2023-03-31T19:55:15.274Z,67.15
2023-03-31T19:57:52.336Z,67.04
2023-03-31T20:00:33.556Z,67.11
2023-03-31T20:03:11.605Z,67.09
2023-03-31T20:05:51.125Z,67.10
2023-03-31T20:08:31.161Z,67.13
2023-03-31T20:11:14.299Z,67.15
2023-03-31T20:13:53.370Z,67.08
2023-03-31T20:16:38.669Z,67.10
2023-03-31T20:19:21.667Z,66.87
2023-03-31T20:22:04.099Z,66.59
2023-03-31T20:24:42.251Z,66.79
2023-03-31T20:27:20.842Z,66.73
2023-03-31T20:29:58.753Z,66.53
2023-03-31T20:32:37.243Z,66.52
2023-03-31T20:35:16.179Z,66.62
2023-03-31T20:37:53.509Z,66.39
2023-03-31T20:40:30.224Z,66.46
2023-03-31T20:43:08.220Z,66.72
2023-03-31T20:45:45.271Z,66.75
2023-03-31T20:48:22.227Z,66.69
2023-03-31T20:50:59.235Z,67.06
2023-03-31T20:53:36.149Z,66.91
2023-03-31T20:56:14.294Z,67.02
2023-03-31T20:58:54.212Z,67.13
2023-03-31T21:01:32.655Z,67.13
2023-03-31T21:04:09.227Z,67.35
2023-03-31T21:06:55.496Z,67.52
2023-03-31T21:09:35.057Z,67.83
2023-03-31T21:12:14.723Z,67.84
2023-03-31T21:14:52.302Z,68.00
2023-03-31T21:17:34.272Z,68.15
2023-03-31T21:20:11.207Z,68.17
2023-03-31T21:22:48.251Z,68.18
2023-03-31T21:25:27.316Z,68.38
2023-03-31T21:28:08.079Z,68.56
2023-03-31T21:30:45.334Z,68.75
2023-03-31T21:33:22.332Z,68.56
2023-03-31T21:36:01.601Z,68.70
2023-03-31T21:38:39.329Z,68.76
2023-03-31T21:41:32.831Z,68.70
2023-03-31T21:44:11.333Z,68.79
2023-03-31T21:46:52.908Z,69.00
2023-03-31T21:49:32.873Z,68.86
2023-03-31T21:52:09.321Z,69.05
2023-03-31T21:54:47.340Z,68.92
2023-03-31T21:57:27.202Z,69.09
2023-03-31T22:00:04.536Z,68.95
2023-03-31T22:02:42.444Z,68.87
2023-03-31T22:05:20.375Z,68.85
2023-03-31T22:07:57.441Z,68.92
2023-03-31T22:10:36.331Z,68.82
2023-03-31T22:13:15.323Z,68.63
2023-03-31T22:15:57.304Z,68.63
2023-03-31T22:18:36.243Z,68.62
2023-03-31T22:21:14.653Z,68.71
2023-03-31T22:23:53.417Z,68.84
2023-03-31T22:26:36.358Z,68.53
2023-03-31T22:29:13.353Z,68.56
2023-03-31T22:31:50.359Z,68.37
2023-03-31T22:34:29.325Z,68.45
2023-03-31T22:37:06.353Z,68.23
2023-03-31T22:39:43.488Z,68.22
2023-03-31T22:42:20.367Z,68.30
2023-03-31T22:44:58.824Z,68.22
2023-03-31T22:47:35.383Z,68.15
2023-03-31T22:50:16.497Z,68.21
2023-03-31T22:52:57.624Z,68.17
2023-03-31T22:55:38.374Z,68.21
2023-03-31T22:58:23.379Z,68.14
2023-03-31T23:01:09.365Z,68.07
2023-03-31T23:03:46.446Z,68.20
2023-03-31T23:06:28.720Z,68.19
2023-03-31T23:09:06.546Z,68.15
2023-03-31T23:11:43.364Z,67.99
2023-03-31T23:14:25.408Z,67.81
2023-03-31T23:17:02.459Z,67.78
2023-03-31T23:19:40.408Z,67.79
2023-03-31T23:22:17.423Z,67.77
2023-03-31T23:24:54.421Z,67.87
2023-03-31T23:27:31.432Z,67.70
2023-03-31T23:30:08.490Z,67.62
2023-03-31T23:32:45.519Z,67.47
2023-03-31T23:35:24.827Z,67.57
2023-03-31T23:38:01.469Z,67.45
2023-03-31T23:40:38.758Z,67.44
2023-03-31T23:43:15.554Z,67.41
2023-03-31T23:45:52.466Z,67.21
2023-03-31T23:48:31.489Z,67.28
2023-03-31T23:51:09.484Z,67.26
2023-03-31T23:53:46.506Z,67.22
2023-03-31T23:56:26.495Z,67.23
2023-03-31T23:59:03.472Z,67.14
